sensor_id;sensor_type;location;lat;lon;timestamp;temperature;humidity
21403;DHT22;10862;51.886;17.078;2024-03-02T00:00:44;10.40;99.90
21403;DHT22;10862;51.886;17.078;2024-03-02T00:03:14;10.20;99.90
21403;DHT22;10862;51.886;17.078;2024-03-02T00:05:39;10.50;99.90
21403;DHT22;10862;51.886;17.078;2024-03-02T00:08:05;10.20;99.90
21403;DHT22;10862;51.886;17.078;2024-03-02T00:10:38;10.20;99.90
21403;DHT22;10862;51.886;17.078;2024-03-02T00:13:07;10.20;99.90
21403;DHT22;10862;51.886;17.078;2024-03-02T00:17:58;10.10;99.90
21403;DHT22;10862;51.886;17.078;2024-03-02T00:20:24;10.10;99.90
21403;DHT22;10862;51.886;17.078;2024-03-02T00:22:57;10.00;99.90
21403;DHT22;10862;51.886;17.078;2024-03-02T00:25:23;10.00;99.90
21403;DHT22;10862;51.886;17.078;2024-03-02T00:27:49;10.00;99.90
21403;DHT22;10862;51.886;17.078;2024-03-02T00:32:59;10.00;99.90
21403;DHT22;10862;51.886;17.078;2024-03-02T00:35:24;10.00;99.90
21403;DHT22;10862;51.886;17.078;2024-03-02T00:37:50;10.00;99.90
21403;DHT22;10862;51.886;17.078;2024-03-02T00:40:16;10.00;99.90
21403;DHT22;10862;51.886;17.078;2024-03-02T00:42:42;10.00;99.90
21403;DHT22;10862;51.886;17.078;2024-03-02T00:45:08;10.10;99.90
21403;DHT22;10862;51.886;17.078;2024-03-02T00:47:37;10.00;99.90
21403;DHT22;10862;51.886;17.078;2024-03-02T00:50:03;10.00;99.90
21403;DHT22;10862;51.886;17.078;2024-03-02T00:52:29;10.00;99.90
21403;DHT22;10862;51.886;17.078;2024-03-02T00:54:56;10.00;99.90
21403;DHT22;10862;51.886;17.078;2024-03-02T00:57:22;10.00;99.90
21403;DHT22;10862;51.886;17.078;2024-03-02T00:59:51;10.00;99.90
21403;DHT22;10862;51.886;17.078;2024-03-02T01:02:17;10.00;99.90
21403;DHT22;10862;51.886;17.078;2024-03-02T01:04:42;10.00;99.90
21403;DHT22;10862;51.886;17.078;2024-03-02T01:07:08;10.10;99.90
21403;DHT22;10862;51.886;17.078;2024-03-02T01:09:33;9.90;99.90
21403;DHT22;10862;51.886;17.078;2024-03-02T01:11:59;9.90;99.90
21403;DHT22;10862;51.886;17.078;2024-03-02T01:14:24;9.90;99.90
21403;DHT22;10862;51.886;17.078;2024-03-02T01:16:50;9.80;99.90
21403;DHT22;10862;51.886;17.078;2024-03-02T01:19:15;9.80;99.90
21403;DHT22;10862;51.886;17.078;2024-03-02T01:21:41;9.90;99.90
21403;DHT22;10862;51.886;17.078;2024-03-02T01:24:06;9.90;99.90
21403;DHT22;10862;51.886;17.078;2024-03-02T01:26:31;9.40;99.90
21403;DHT22;10862;51.886;17.078;2024-03-02T01:28:57;9.90;99.90
21403;DHT22;10862;51.886;17.078;2024-03-02T01:31:22;8.90;99.90
21403;DHT22;10862;51.886;17.078;2024-03-02T01:33:49;9.70;99.90
21403;DHT22;10862;51.886;17.078;2024-03-02T01:36:14;9.70;99.90
21403;DHT22;10862;51.886;17.078;2024-03-02T01:38:40;10.50;99.90
21403;DHT22;10862;51.886;17.078;2024-03-02T01:41:05;9.80;99.90
21403;DHT22;10862;51.886;17.078;2024-03-02T01:43:31;9.90;99.90
21403;DHT22;10862;51.886;17.078;2024-03-02T01:45:56;9.90;99.90
21403;DHT22;10862;51.886;17.078;2024-03-02T01:48:22;9.80;99.90
21403;DHT22;10862;51.886;17.078;2024-03-02T01:50:47;9.80;99.90
21403;DHT22;10862;51.886;17.078;2024-03-02T01:53:13;9.90;99.90
21403;DHT22;10862;51.886;17.078;2024-03-02T01:55:38;9.70;99.90
21403;DHT22;10862;51.886;17.078;2024-03-02T01:58:03;9.70;99.90
21403;DHT22;10862;51.886;17.078;2024-03-02T02:00:29;9.70;99.90
21403;DHT22;10862;51.886;17.078;2024-03-02T02:02:55;9.70;99.90
21403;DHT22;10862;51.886;17.078;2024-03-02T02:05:21;9.60;99.90
21403;DHT22;10862;51.886;17.078;2024-03-02T02:07:46;9.60;99.90
21403;DHT22;10862;51.886;17.078;2024-03-02T02:10:12;9.50;99.90
21403;DHT22;10862;51.886;17.078;2024-03-02T02:12:38;9.50;99.90
21403;DHT22;10862;51.886;17.078;2024-03-02T02:15:04;9.40;99.90
21403;DHT22;10862;51.886;17.078;2024-03-02T02:17:30;9.30;99.90
21403;DHT22;10862;51.886;17.078;2024-03-02T02:19:56;9.30;99.90
21403;DHT22;10862;51.886;17.078;2024-03-02T02:22:21;9.30;99.90
21403;DHT22;10862;51.886;17.078;2024-03-02T02:24:47;9.20;99.90
21403;DHT22;10862;51.886;17.078;2024-03-02T02:27:12;9.20;99.90
21403;DHT22;10862;51.886;17.078;2024-03-02T02:29:40;9.20;99.90
21403;DHT22;10862;51.886;17.078;2024-03-02T02:32:06;9.20;99.90
21403;DHT22;10862;51.886;17.078;2024-03-02T02:34:31;9.30;99.90
21403;DHT22;10862;51.886;17.078;2024-03-02T02:36:57;9.20;99.90
21403;DHT22;10862;51.886;17.078;2024-03-02T02:39:22;9.20;99.90
21403;DHT22;10862;51.886;17.078;2024-03-02T02:41:48;9.30;99.90
21403;DHT22;10862;51.886;17.078;2024-03-02T02:44:14;9.30;99.90
21403;DHT22;10862;51.886;17.078;2024-03-02T02:46:39;9.30;99.90
21403;DHT22;10862;51.886;17.078;2024-03-02T02:49:05;9.50;99.90
21403;DHT22;10862;51.886;17.078;2024-03-02T02:51:31;9.30;99.90
21403;DHT22;10862;51.886;17.078;2024-03-02T02:53:56;9.20;99.90
21403;DHT22;10862;51.886;17.078;2024-03-02T02:56:22;9.20;99.90
21403;DHT22;10862;51.886;17.078;2024-03-02T02:58:47;9.20;99.90
21403;DHT22;10862;51.886;17.078;2024-03-02T03:01:14;9.40;99.90
21403;DHT22;10862;51.886;17.078;2024-03-02T03:03:40;9.30;99.90
21403;DHT22;10862;51.886;17.078;2024-03-02T03:06:06;9.30;99.90
21403;DHT22;10862;51.886;17.078;2024-03-02T03:08:31;9.20;99.90
21403;DHT22;10862;51.886;17.078;2024-03-02T03:10:57;9.40;99.90
21403;DHT22;10862;51.886;17.078;2024-03-02T03:13:22;9.30;99.90
21403;DHT22;10862;51.886;17.078;2024-03-02T03:15:48;9.40;99.90
21403;DHT22;10862;51.886;17.078;2024-03-02T03:18:13;9.40;99.90
21403;DHT22;10862;51.886;17.078;2024-03-02T03:20:39;9.50;99.90
21403;DHT22;10862;51.886;17.078;2024-03-02T03:23:04;9.40;99.90
21403;DHT22;10862;51.886;17.078;2024-03-02T03:25:30;9.40;99.90
21403;DHT22;10862;51.886;17.078;2024-03-02T03:27:55;9.50;99.90
21403;DHT22;10862;51.886;17.078;2024-03-02T03:30:21;9.50;99.90
21403;DHT22;10862;51.886;17.078;2024-03-02T03:32:47;9.50;99.90
21403;DHT22;10862;51.886;17.078;2024-03-02T03:35:13;9.50;99.90
21403;DHT22;10862;51.886;17.078;2024-03-02T03:37:40;9.70;99.90
21403;DHT22;10862;51.886;17.078;2024-03-02T03:40:06;9.50;99.90
21403;DHT22;10862;51.886;17.078;2024-03-02T03:42:39;9.50;99.90
21403;DHT22;10862;51.886;17.078;2024-03-02T03:45:05;9.50;99.90
21403;DHT22;10862;51.886;17.078;2024-03-02T03:47:31;9.50;99.90
21403;DHT22;10862;51.886;17.078;2024-03-02T03:49:56;9.50;99.90
21403;DHT22;10862;51.886;17.078;2024-03-02T03:52:22;10.20;99.90
21403;DHT22;10862;51.886;17.078;2024-03-02T03:54:47;9.60;99.90
21403;DHT22;10862;51.886;17.078;2024-03-02T03:57:13;9.50;99.90
21403;DHT22;10862;51.886;17.078;2024-03-02T03:59:38;9.50;99.90
21403;DHT22;10862;51.886;17.078;2024-03-02T04:02:04;9.30;99.90
21403;DHT22;10862;51.886;17.078;2024-03-02T04:04:29;9.30;99.90
21403;DHT22;10862;51.886;17.078;2024-03-02T04:06:55;9.30;99.90
21403;DHT22;10862;51.886;17.078;2024-03-02T04:09:20;9.20;99.90
21403;DHT22;10862;51.886;17.078;2024-03-02T04:11:46;9.80;99.90
21403;DHT22;10862;51.886;17.078;2024-03-02T04:14:11;9.40;99.90
21403;DHT22;10862;51.886;17.078;2024-03-02T04:16:38;9.60;99.90
21403;DHT22;10862;51.886;17.078;2024-03-02T04:19:03;9.40;99.90
21403;DHT22;10862;51.886;17.078;2024-03-02T04:21:29;9.40;99.90
21403;DHT22;10862;51.886;17.078;2024-03-02T04:23:54;9.40;99.90
21403;DHT22;10862;51.886;17.078;2024-03-02T04:26:23;9.50;99.90
21403;DHT22;10862;51.886;17.078;2024-03-02T04:28:50;9.40;99.90
21403;DHT22;10862;51.886;17.078;2024-03-02T04:31:16;9.30;99.90
21403;DHT22;10862;51.886;17.078;2024-03-02T04:33:42;9.30;99.90
21403;DHT22;10862;51.886;17.078;2024-03-02T04:36:07;9.50;99.90
21403;DHT22;10862;51.886;17.078;2024-03-02T04:38:35;9.30;99.90
21403;DHT22;10862;51.886;17.078;2024-03-02T04:41:00;9.30;99.90
21403;DHT22;10862;51.886;17.078;2024-03-02T04:43:26;9.30;99.90
21403;DHT22;10862;51.886;17.078;2024-03-02T04:45:51;9.30;99.90
21403;DHT22;10862;51.886;17.078;2024-03-02T04:48:17;9.40;99.90
21403;DHT22;10862;51.886;17.078;2024-03-02T04:50:42;9.60;99.90
21403;DHT22;10862;51.886;17.078;2024-03-02T04:53:08;9.50;99.90
21403;DHT22;10862;51.886;17.078;2024-03-02T04:55:33;9.40;99.90
21403;DHT22;10862;51.886;17.078;2024-03-02T04:58:04;9.50;99.90
21403;DHT22;10862;51.886;17.078;2024-03-02T05:00:30;9.70;99.90
21403;DHT22;10862;51.886;17.078;2024-03-02T05:02:56;9.50;99.90
21403;DHT22;10862;51.886;17.078;2024-03-02T05:05:21;9.90;99.90
21403;DHT22;10862;51.886;17.078;2024-03-02T05:07:47;9.50;99.90
21403;DHT22;10862;51.886;17.078;2024-03-02T05:10:12;9.60;99.90
21403;DHT22;10862;51.886;17.078;2024-03-02T05:12:38;9.60;99.90
21403;DHT22;10862;51.886;17.078;2024-03-02T05:15:22;9.70;99.90
21403;DHT22;10862;51.886;17.078;2024-03-02T05:17:47;9.50;99.90
21403;DHT22;10862;51.886;17.078;2024-03-02T05:20:12;9.60;99.90
21403;DHT22;10862;51.886;17.078;2024-03-02T05:22:38;9.60;99.90
21403;DHT22;10862;51.886;17.078;2024-03-02T05:25:04;9.60;99.90
21403;DHT22;10862;51.886;17.078;2024-03-02T05:27:30;9.60;99.90
21403;DHT22;10862;51.886;17.078;2024-03-02T05:29:58;9.60;99.90
21403;DHT22;10862;51.886;17.078;2024-03-02T05:32:23;9.70;99.90
21403;DHT22;10862;51.886;17.078;2024-03-02T05:34:49;9.60;99.90
21403;DHT22;10862;51.886;17.078;2024-03-02T05:37:16;9.50;99.90
21403;DHT22;10862;51.886;17.078;2024-03-02T05:39:41;9.70;99.90
21403;DHT22;10862;51.886;17.078;2024-03-02T05:42:08;9.60;99.90
21403;DHT22;10862;51.886;17.078;2024-03-02T05:44:34;9.50;99.90
21403;DHT22;10862;51.886;17.078;2024-03-02T05:47:00;9.50;99.90
21403;DHT22;10862;51.886;17.078;2024-03-02T05:49:25;9.50;99.90
21403;DHT22;10862;51.886;17.078;2024-03-02T05:51:51;9.40;99.90
21403;DHT22;10862;51.886;17.078;2024-03-02T05:54:16;9.40;99.90
21403;DHT22;10862;51.886;17.078;2024-03-02T05:56:42;9.40;99.90
21403;DHT22;10862;51.886;17.078;2024-03-02T05:59:07;9.40;99.90
21403;DHT22;10862;51.886;17.078;2024-03-02T06:04:04;9.40;99.90
21403;DHT22;10862;51.886;17.078;2024-03-02T06:06:29;9.40;99.90
21403;DHT22;10862;51.886;17.078;2024-03-02T06:08:55;9.60;99.90
21403;DHT22;10862;51.886;17.078;2024-03-02T06:11:20;9.30;99.90
21403;DHT22;10862;51.886;17.078;2024-03-02T06:13:46;9.30;99.90
21403;DHT22;10862;51.886;17.078;2024-03-02T06:16:11;9.40;99.90
21403;DHT22;10862;51.886;17.078;2024-03-02T06:18:37;9.30;99.90
21403;DHT22;10862;51.886;17.078;2024-03-02T06:21:02;9.20;99.90
21403;DHT22;10862;51.886;17.078;2024-03-02T06:23:28;9.30;99.90
21403;DHT22;10862;51.886;17.078;2024-03-02T06:25:54;9.30;99.90
21403;DHT22;10862;51.886;17.078;2024-03-02T06:28:19;9.30;99.90
21403;DHT22;10862;51.886;17.078;2024-03-02T06:30:45;9.40;99.90
21403;DHT22;10862;51.886;17.078;2024-03-02T06:33:11;9.70;99.90
21403;DHT22;10862;51.886;17.078;2024-03-02T06:35:36;9.40;99.90
21403;DHT22;10862;51.886;17.078;2024-03-02T06:38:02;9.40;99.90
21403;DHT22;10862;51.886;17.078;2024-03-02T06:40:28;9.40;99.90
21403;DHT22;10862;51.886;17.078;2024-03-02T06:42:53;9.70;99.90
21403;DHT22;10862;51.886;17.078;2024-03-02T06:45:19;9.50;99.90
21403;DHT22;10862;51.886;17.078;2024-03-02T06:47:44;9.60;99.90
21403;DHT22;10862;51.886;17.078;2024-03-02T06:50:10;9.80;99.90
21403;DHT22;10862;51.886;17.078;2024-03-02T06:52:35;9.60;99.90
21403;DHT22;10862;51.886;17.078;2024-03-02T06:55:01;9.80;99.90
21403;DHT22;10862;51.886;17.078;2024-03-02T06:57:27;9.70;99.90
21403;DHT22;10862;51.886;17.078;2024-03-02T06:59:52;9.70;99.90
21403;DHT22;10862;51.886;17.078;2024-03-02T07:02:20;9.90;99.90
21403;DHT22;10862;51.886;17.078;2024-03-02T07:04:46;9.80;99.90
21403;DHT22;10862;51.886;17.078;2024-03-02T07:07:12;9.90;99.90
21403;DHT22;10862;51.886;17.078;2024-03-02T07:09:37;10.00;99.90
21403;DHT22;10862;51.886;17.078;2024-03-02T07:12:03;10.20;99.90
21403;DHT22;10862;51.886;17.078;2024-03-02T07:14:29;10.10;99.90
21403;DHT22;10862;51.886;17.078;2024-03-02T07:17:12;10.10;99.90
21403;DHT22;10862;51.886;17.078;2024-03-02T07:19:38;10.20;99.90
21403;DHT22;10862;51.886;17.078;2024-03-02T07:22:07;10.20;99.90
21403;DHT22;10862;51.886;17.078;2024-03-02T07:24:40;10.30;99.90
21403;DHT22;10862;51.886;17.078;2024-03-02T07:27:06;10.30;99.90
21403;DHT22;10862;51.886;17.078;2024-03-02T07:29:32;10.30;99.90
21403;DHT22;10862;51.886;17.078;2024-03-02T07:31:57;10.50;99.90
21403;DHT22;10862;51.886;17.078;2024-03-02T07:34:23;10.70;99.90
21403;DHT22;10862;51.886;17.078;2024-03-02T07:36:48;10.70;99.90
21403;DHT22;10862;51.886;17.078;2024-03-02T07:39:14;10.90;99.90
21403;DHT22;10862;51.886;17.078;2024-03-02T07:41:39;11.10;99.90
21403;DHT22;10862;51.886;17.078;2024-03-02T07:44:05;11.10;99.90
21403;DHT22;10862;51.886;17.078;2024-03-02T07:46:30;11.20;85.00
21403;DHT22;10862;51.886;17.078;2024-03-02T07:48:56;11.30;37.10
21403;DHT22;10862;51.886;17.078;2024-03-02T07:51:21;11.30;1.00
21403;DHT22;10862;51.886;17.078;2024-03-02T07:53:47;11.30;1.00
21403;DHT22;10862;51.886;17.078;2024-03-02T07:56:12;11.50;1.00
21403;DHT22;10862;51.886;17.078;2024-03-02T07:58:38;11.50;1.00
21403;DHT22;10862;51.886;17.078;2024-03-02T08:01:03;11.60;1.00
21403;DHT22;10862;51.886;17.078;2024-03-02T08:03:29;11.40;1.00
21403;DHT22;10862;51.886;17.078;2024-03-02T08:05:54;11.60;1.00
21403;DHT22;10862;51.886;17.078;2024-03-02T08:08:20;11.60;1.00
21403;DHT22;10862;51.886;17.078;2024-03-02T08:10:46;11.50;1.00
21403;DHT22;10862;51.886;17.078;2024-03-02T08:13:11;11.50;1.00
21403;DHT22;10862;51.886;17.078;2024-03-02T08:15:37;11.60;1.00
21403;DHT22;10862;51.886;17.078;2024-03-02T08:18:02;11.80;1.00
21403;DHT22;10862;51.886;17.078;2024-03-02T08:20:28;11.80;1.00
21403;DHT22;10862;51.886;17.078;2024-03-02T08:22:53;11.80;1.00
21403;DHT22;10862;51.886;17.078;2024-03-02T08:25:20;11.90;99.90
21403;DHT22;10862;51.886;17.078;2024-03-02T08:27:46;12.10;99.90
21403;DHT22;10862;51.886;17.078;2024-03-02T08:30:11;12.20;99.90
21403;DHT22;10862;51.886;17.078;2024-03-02T08:32:37;12.20;1.00
21403;DHT22;10862;51.886;17.078;2024-03-02T08:35:03;12.20;1.00
21403;DHT22;10862;51.886;17.078;2024-03-02T08:37:29;12.50;1.00
21403;DHT22;10862;51.886;17.078;2024-03-02T08:39:54;12.70;1.00
21403;DHT22;10862;51.886;17.078;2024-03-02T08:42:20;12.70;1.00
21403;DHT22;10862;51.886;17.078;2024-03-02T08:44:46;12.90;1.00
21403;DHT22;10862;51.886;17.078;2024-03-02T08:47:11;13.40;99.90
21403;DHT22;10862;51.886;17.078;2024-03-02T08:49:37;13.30;99.90
21403;DHT22;10862;51.886;17.078;2024-03-02T08:52:02;13.20;99.90
21403;DHT22;10862;51.886;17.078;2024-03-02T08:54:28;13.30;1.00
21403;DHT22;10862;51.886;17.078;2024-03-02T08:56:55;13.70;1.00
21403;DHT22;10862;51.886;17.078;2024-03-02T08:59:20;14.60;99.90
21403;DHT22;10862;51.886;17.078;2024-03-02T09:01:46;15.10;1.00
21403;DHT22;10862;51.886;17.078;2024-03-02T09:04:12;15.50;99.90
21403;DHT22;10862;51.886;17.078;2024-03-02T09:06:37;16.60;97.70
21403;DHT22;10862;51.886;17.078;2024-03-02T09:09:03;16.60;1.00
21403;DHT22;10862;51.886;17.078;2024-03-02T09:11:29;15.80;1.00
21403;DHT22;10862;51.886;17.078;2024-03-02T09:13:55;15.40;1.00
21403;DHT22;10862;51.886;17.078;2024-03-02T09:16:22;15.00;1.00
21403;DHT22;10862;51.886;17.078;2024-03-02T09:18:47;15.00;1.00
21403;DHT22;10862;51.886;17.078;2024-03-02T09:21:12;15.20;1.00
21403;DHT22;10862;51.886;17.078;2024-03-02T09:23:38;15.10;1.00
21403;DHT22;10862;51.886;17.078;2024-03-02T09:26:05;15.70;1.00
21403;DHT22;10862;51.886;17.078;2024-03-02T09:28:31;16.40;1.00
21403;DHT22;10862;51.886;17.078;2024-03-02T09:30:56;16.50;99.90
21403;DHT22;10862;51.886;17.078;2024-03-02T09:33:22;17.00;99.90
21403;DHT22;10862;51.886;17.078;2024-03-02T09:35:47;17.10;99.90
21403;DHT22;10862;51.886;17.078;2024-03-02T09:38:14;17.10;99.90
21403;DHT22;10862;51.886;17.078;2024-03-02T09:40:40;17.00;99.90
21403;DHT22;10862;51.886;17.078;2024-03-02T09:43:07;16.70;99.90
21403;DHT22;10862;51.886;17.078;2024-03-02T09:45:32;17.10;99.90
21403;DHT22;10862;51.886;17.078;2024-03-02T09:47:58;18.10;99.90
21403;DHT22;10862;51.886;17.078;2024-03-02T09:50:24;17.90;99.90
21403;DHT22;10862;51.886;17.078;2024-03-02T09:52:50;17.40;99.90
21403;DHT22;10862;51.886;17.078;2024-03-02T09:55:16;17.20;99.90
21403;DHT22;10862;51.886;17.078;2024-03-02T09:57:43;17.60;99.90
21403;DHT22;10862;51.886;17.078;2024-03-02T10:00:09;18.30;99.90
21403;DHT22;10862;51.886;17.078;2024-03-02T10:02:40;19.30;1.00
21403;DHT22;10862;51.886;17.078;2024-03-02T10:05:06;19.90;1.00
21403;DHT22;10862;51.886;17.078;2024-03-02T10:07:32;20.10;1.00
21403;DHT22;10862;51.886;17.078;2024-03-02T10:09:58;19.90;51.10
21403;DHT22;10862;51.886;17.078;2024-03-02T10:12:24;19.50;83.80
21403;DHT22;10862;51.886;17.078;2024-03-02T10:14:50;18.60;1.00
21403;DHT22;10862;51.886;17.078;2024-03-02T10:17:30;18.30;1.00
21403;DHT22;10862;51.886;17.078;2024-03-02T10:19:56;18.50;1.00
21403;DHT22;10862;51.886;17.078;2024-03-02T10:22:22;18.20;99.90
21403;DHT22;10862;51.886;17.078;2024-03-02T10:24:48;18.50;1.00
21403;DHT22;10862;51.886;17.078;2024-03-02T10:27:18;18.10;1.00
21403;DHT22;10862;51.886;17.078;2024-03-02T10:29:47;18.40;99.90
21403;DHT22;10862;51.886;17.078;2024-03-02T10:32:15;18.80;99.90
21403;DHT22;10862;51.886;17.078;2024-03-02T10:34:41;19.10;99.90
21403;DHT22;10862;51.886;17.078;2024-03-02T10:37:07;18.80;99.90
21403;DHT22;10862;51.886;17.078;2024-03-02T10:39:36;18.60;87.50
21403;DHT22;10862;51.886;17.078;2024-03-02T10:42:02;18.00;1.00
21403;DHT22;10862;51.886;17.078;2024-03-02T10:44:28;18.00;1.00
21403;DHT22;10862;51.886;17.078;2024-03-02T10:46:54;18.30;1.00
21403;DHT22;10862;51.886;17.078;2024-03-02T10:49:20;19.20;99.90
21403;DHT22;10862;51.886;17.078;2024-03-02T10:51:47;19.50;99.90
21403;DHT22;10862;51.886;17.078;2024-03-02T10:54:13;18.60;1.00
21403;DHT22;10862;51.886;17.078;2024-03-02T10:56:40;18.40;99.90
21403;DHT22;10862;51.886;17.078;2024-03-02T10:59:26;18.10;1.00
21403;DHT22;10862;51.886;17.078;2024-03-02T11:01:53;18.50;1.00
21403;DHT22;10862;51.886;17.078;2024-03-02T11:04:20;18.00;99.90
21403;DHT22;10862;51.886;17.078;2024-03-02T11:06:51;18.00;1.00
21403;DHT22;10862;51.886;17.078;2024-03-02T11:09:20;18.00;1.00
21403;DHT22;10862;51.886;17.078;2024-03-02T11:11:49;17.90;1.00
21403;DHT22;10862;51.886;17.078;2024-03-02T11:14:18;18.10;17.40
21403;DHT22;10862;51.886;17.078;2024-03-02T11:16:46;19.10;97.50
21403;DHT22;10862;51.886;17.078;2024-03-02T11:19:12;19.20;1.00
21403;DHT22;10862;51.886;17.078;2024-03-02T11:21:38;19.10;1.00
21403;DHT22;10862;51.886;17.078;2024-03-02T11:26:53;19.30;1.00
21403;DHT22;10862;51.886;17.078;2024-03-02T11:32:04;20.20;99.90
21403;DHT22;10862;51.886;17.078;2024-03-02T11:34:34;19.40;99.90
21403;DHT22;10862;51.886;17.078;2024-03-02T11:37:02;19.00;1.00
21403;DHT22;10862;51.886;17.078;2024-03-02T11:39:28;19.50;1.00
21403;DHT22;10862;51.886;17.078;2024-03-02T11:41:55;19.30;1.00
21403;DHT22;10862;51.886;17.078;2024-03-02T11:44:21;19.40;1.00
21403;DHT22;10862;51.886;17.078;2024-03-02T11:46:51;19.00;99.90
21403;DHT22;10862;51.886;17.078;2024-03-02T11:49:20;18.40;1.00
21403;DHT22;10862;51.886;17.078;2024-03-02T11:52:01;18.60;1.00
21403;DHT22;10862;51.886;17.078;2024-03-02T11:54:27;18.70;99.90
21403;DHT22;10862;51.886;17.078;2024-03-02T11:56:55;18.70;1.00
21403;DHT22;10862;51.886;17.078;2024-03-02T11:59:21;18.10;99.90
21403;DHT22;10862;51.886;17.078;2024-03-02T12:01:47;17.70;1.00
21403;DHT22;10862;51.886;17.078;2024-03-02T12:04:13;17.30;41.60
21403;DHT22;10862;51.886;17.078;2024-03-02T12:06:39;17.20;1.00
21403;DHT22;10862;51.886;17.078;2024-03-02T12:09:04;17.00;1.00
21403;DHT22;10862;51.886;17.078;2024-03-02T12:11:30;16.90;99.90
21403;DHT22;10862;51.886;17.078;2024-03-02T12:13:55;17.00;1.00
21403;DHT22;10862;51.886;17.078;2024-03-02T12:16:23;17.00;1.00
21403;DHT22;10862;51.886;17.078;2024-03-02T12:18:48;17.20;1.00
21403;DHT22;10862;51.886;17.078;2024-03-02T12:21:14;17.40;1.00
21403;DHT22;10862;51.886;17.078;2024-03-02T12:23:39;17.10;1.00
21403;DHT22;10862;51.886;17.078;2024-03-02T12:26:05;16.60;99.90
21403;DHT22;10862;51.886;17.078;2024-03-02T12:28:32;16.40;1.00
21403;DHT22;10862;51.886;17.078;2024-03-02T12:30:57;16.30;1.00
21403;DHT22;10862;51.886;17.078;2024-03-02T12:33:23;16.30;1.00
21403;DHT22;10862;51.886;17.078;2024-03-02T12:35:49;16.30;1.00
21403;DHT22;10862;51.886;17.078;2024-03-02T12:38:14;16.70;99.90
21403;DHT22;10862;51.886;17.078;2024-03-02T12:40:40;16.80;99.90
21403;DHT22;10862;51.886;17.078;2024-03-02T12:43:05;16.90;1.00
21403;DHT22;10862;51.886;17.078;2024-03-02T12:45:31;17.00;99.90
21403;DHT22;10862;51.886;17.078;2024-03-02T12:47:57;16.90;99.90
21403;DHT22;10862;51.886;17.078;2024-03-02T12:50:25;16.70;1.00
21403;DHT22;10862;51.886;17.078;2024-03-02T12:52:53;16.70;99.90
21403;DHT22;10862;51.886;17.078;2024-03-02T12:55:19;16.40;99.30
21403;DHT22;10862;51.886;17.078;2024-03-02T12:57:45;16.70;99.90
21403;DHT22;10862;51.886;17.078;2024-03-02T13:00:11;16.70;99.90
21403;DHT22;10862;51.886;17.078;2024-03-02T13:02:41;16.70;99.90
21403;DHT22;10862;51.886;17.078;2024-03-02T13:05:07;16.60;99.90
21403;DHT22;10862;51.886;17.078;2024-03-02T13:07:36;16.90;99.90
21403;DHT22;10862;51.886;17.078;2024-03-02T13:10:02;16.80;99.90
21403;DHT22;10862;51.886;17.078;2024-03-02T13:12:28;16.70;99.90
21403;DHT22;10862;51.886;17.078;2024-03-02T13:14:55;16.80;99.90
21403;DHT22;10862;51.886;17.078;2024-03-02T13:17:20;16.80;99.90
21403;DHT22;10862;51.886;17.078;2024-03-02T13:19:55;16.80;99.90
21403;DHT22;10862;51.886;17.078;2024-03-02T13:22:21;16.10;99.90
21403;DHT22;10862;51.886;17.078;2024-03-02T13:24:47;15.90;1.00
21403;DHT22;10862;51.886;17.078;2024-03-02T13:27:13;15.80;99.90
21403;DHT22;10862;51.886;17.078;2024-03-02T13:29:39;15.80;1.00
21403;DHT22;10862;51.886;17.078;2024-03-02T13:32:05;15.70;1.70
21403;DHT22;10862;51.886;17.078;2024-03-02T13:34:30;15.70;99.90
21403;DHT22;10862;51.886;17.078;2024-03-02T13:36:56;15.90;1.00
21403;DHT22;10862;51.886;17.078;2024-03-02T13:39:21;15.80;99.90
21403;DHT22;10862;51.886;17.078;2024-03-02T13:41:48;15.90;99.90
21403;DHT22;10862;51.886;17.078;2024-03-02T13:44:18;15.90;99.90
21403;DHT22;10862;51.886;17.078;2024-03-02T13:46:44;16.00;99.90
21403;DHT22;10862;51.886;17.078;2024-03-02T13:49:11;15.90;99.90
21403;DHT22;10862;51.886;17.078;2024-03-02T13:51:48;15.90;1.00
21403;DHT22;10862;51.886;17.078;2024-03-02T13:54:14;15.90;11.80
21403;DHT22;10862;51.886;17.078;2024-03-02T13:56:42;15.90;99.90
21403;DHT22;10862;51.886;17.078;2024-03-02T13:59:12;15.80;1.00
21403;DHT22;10862;51.886;17.078;2024-03-02T14:01:37;15.90;1.00
21403;DHT22;10862;51.886;17.078;2024-03-02T14:04:03;15.80;1.00
21403;DHT22;10862;51.886;17.078;2024-03-02T14:06:28;15.80;1.00
21403;DHT22;10862;51.886;17.078;2024-03-02T14:08:54;15.70;1.00
21403;DHT22;10862;51.886;17.078;2024-03-02T14:11:19;15.50;1.00
21403;DHT22;10862;51.886;17.078;2024-03-02T14:13:45;15.40;1.00
21403;DHT22;10862;51.886;17.078;2024-03-02T14:16:15;15.40;1.00
21403;DHT22;10862;51.886;17.078;2024-03-02T14:18:41;15.30;1.00
21403;DHT22;10862;51.886;17.078;2024-03-02T14:21:06;15.30;1.00
21403;DHT22;10862;51.886;17.078;2024-03-02T14:23:32;15.30;1.00
21403;DHT22;10862;51.886;17.078;2024-03-02T14:25:57;15.20;1.00
21403;DHT22;10862;51.886;17.078;2024-03-02T14:28:24;15.20;1.00
21403;DHT22;10862;51.886;17.078;2024-03-02T14:30:50;15.20;1.00
21403;DHT22;10862;51.886;17.078;2024-03-02T14:33:15;15.40;1.00
21403;DHT22;10862;51.886;17.078;2024-03-02T14:35:42;15.60;1.00
21403;DHT22;10862;51.886;17.078;2024-03-02T14:38:07;15.40;1.00
21403;DHT22;10862;51.886;17.078;2024-03-02T14:40:33;15.20;1.00
21403;DHT22;10862;51.886;17.078;2024-03-02T14:42:58;15.10;1.00
21403;DHT22;10862;51.886;17.078;2024-03-02T14:45:24;15.00;1.00
21403;DHT22;10862;51.886;17.078;2024-03-02T14:47:49;15.70;1.00
21403;DHT22;10862;51.886;17.078;2024-03-02T14:50:15;15.30;1.00
21403;DHT22;10862;51.886;17.078;2024-03-02T14:52:41;15.10;1.00
21403;DHT22;10862;51.886;17.078;2024-03-02T14:55:07;15.10;1.00
21403;DHT22;10862;51.886;17.078;2024-03-02T14:57:33;15.20;4.60
21403;DHT22;10862;51.886;17.078;2024-03-02T14:59:58;15.00;99.90
21403;DHT22;10862;51.886;17.078;2024-03-02T15:02:24;15.00;99.90
21403;DHT22;10862;51.886;17.078;2024-03-02T15:04:50;14.90;99.90
21403;DHT22;10862;51.886;17.078;2024-03-02T15:07:16;14.90;99.90
21403;DHT22;10862;51.886;17.078;2024-03-02T15:09:41;14.90;99.90
21403;DHT22;10862;51.886;17.078;2024-03-02T15:12:07;15.00;1.00
21403;DHT22;10862;51.886;17.078;2024-03-02T15:14:36;14.90;1.00
21403;DHT22;10862;51.886;17.078;2024-03-02T15:17:03;14.90;99.90
21403;DHT22;10862;51.886;17.078;2024-03-02T15:19:29;14.90;99.90
21403;DHT22;10862;51.886;17.078;2024-03-02T15:21:54;14.10;99.90
21403;DHT22;10862;51.886;17.078;2024-03-02T15:24:20;14.90;99.90
21403;DHT22;10862;51.886;17.078;2024-03-02T15:26:45;14.80;99.90
21403;DHT22;10862;51.886;17.078;2024-03-02T15:29:11;14.80;1.00
21403;DHT22;10862;51.886;17.078;2024-03-02T15:31:36;14.80;1.00